Time;durP1;ratioP1;P1;durP2;ratioP2;P2;SDS_P1;SDS_P2;PMS_P1;PMS_P2;Temp;Humidity;BMP_temperature;BMP_pressure;BME280_temperature;BME280_humidity;BME280_pressure;Samples;Min_cycle;Max_cycle;Signal;HPM_P1;HPM_P2
2021/11/03 00:02:18;;;;;;;11.32;8.35;;;;;;;;;;6148717;23;20203;31
2021/11/03 00:10:29;;;;;;;13.27;8.65;;;;;;;;;;6344386;22;20189;31
2021/11/03 00:14:23;;;;;;;13.15;8.48;;;;;;;;;;6174702;22;20583;-61
2021/11/03 00:36:04;;;;;;;16.08;7.90;;;;;;;;;;6291726;22;20555;31
2021/11/03 00:53:09;;;;;;;11.90;7.93;;;;;;;;;;6148308;23;20215;31
2021/11/03 00:57:51;;;;;;;12.88;7.93;;;;;;;;;;6291422;22;20579;31
2021/11/03 01:07:12;;;;;;;12.80;8.38;;;;;;;;;;6204523;22;20205;-59
2021/11/03 01:11:58;;;;;;;11.77;8.50;;;;;;;;;;6348220;22;20516;-58
2021/11/03 01:19:06;;;;;;;14.15;8.73;;;;;;;;;;6293261;22;20572;31
2021/11/03 01:25:53;;;;;;;14.45;9.02;;;;;;;;;;6205008;22;20524;-59
2021/11/03 01:49:08;;;;;;;12.38;9.27;;;;;;;;;;6323542;22;20195;31
2021/11/03 02:03:31;;;;;;;12.43;8.85;;;;;;;;;;6332088;22;20202;31
2021/11/03 02:07:44;;;;;;;14.02;9.45;;;;;;;;;;6260648;22;20510;-60
2021/11/03 02:17:22;;;;;;;14.85;9.27;;;;;;;;;;6203065;22;20484;-60
2021/11/03 02:37:48;;;;;;;14.48;9.07;;;;;;;;;;6204181;22;20198;31
2021/11/03 02:49:59;;;;;;;14.82;9.55;;;;;;;;;;6322839;22;20505;-59
2021/11/03 03:04:27;;;;;;;15.88;10.05;;;;;;;;;;6292155;22;20539;31
2021/11/03 03:11:21;;;;;;;14.27;9.38;;;;;;;;;;6228464;22;23281;31
2021/11/03 03:20:29;;;;;;;13.90;9.43;;;;;;;;;;6202172;22;20202;31
2021/11/03 03:27:32;;;;;;;15.70;10.57;;;;;;;;;;6201646;22;20202;31
2021/11/03 03:34:23;;;;;;;16.58;10.68;;;;;;;;;;6263429;22;20189;-62
2021/11/03 04:03:06;;;;;;;15.77;10.63;;;;;;;;;;6263235;22;20197;-61
2021/11/03 04:13:51;;;;;;;15.07;10.15;;;;;;;;;;6289324;22;20551;31
2021/11/03 04:37:12;;;;;;;14.30;10.48;;;;;;;;;;6180128;22;20203;31
2021/11/03 04:42:12;;;;;;;15.45;10.38;;;;;;;;;;6259522;22;20547;31
2021/11/03 04:52:21;;;;;;;12.82;10.52;;;;;;;;;;6225643;22;20702;31
2021/11/03 04:59:55;;;;;;;14.10;9.80;;;;;;;;;;6226586;22;20217;31
2021/11/03 05:07:06;;;;;;;17.25;9.82;;;;;;;;;;6346085;22;20206;31
2021/11/03 05:14:27;;;;;;;13.07;10.18;;;;;;;;;;6168838;22;20218;31
2021/11/03 05:18:53;;;;;;;16.00;10.18;;;;;;;;;;6228950;22;20567;-61
2021/11/03 05:21:19;;;;;;;15.68;10.18;;;;;;;;;;6196839;22;20191;31
2021/11/03 05:25:57;;;;;;;15.82;10.55;;;;;;;;;;6175548;22;20514;-61
2021/11/03 05:35:06;;;;;;;15.98;10.57;;;;;;;;;;6136008;23;20207;31
2021/11/03 06:15:42;;;;;;;17.13;11.43;;;;;;;;;;6235639;22;20534;31
2021/11/03 06:25:36;;;;;;;17.27;11.48;;;;;;;;;;6173202;22;20218;31
2021/11/03 06:29:59;;;;;;;20.08;11.93;;;;;;;;;;6231696;22;20795;31
2021/11/03 06:39:07;;;;;;;17.02;12.13;;;;;;;;;;6257839;22;20205;31
2021/11/03 06:43:20;;;;;;;16.48;12.05;;;;;;;;;;6323461;22;20514;31
2021/11/03 06:59:01;;;;;;;17.88;11.88;;;;;;;;;;6196927;22;20206;31
2021/11/03 07:03:25;;;;;;;19.75;12.13;;;;;;;;;;6176438;22;20651;31
2021/11/03 07:12:29;;;;;;;16.30;11.93;;;;;;;;;;6181781;22;20207;31
2021/11/03 07:33:23;;;;;;;18.70;13.25;;;;;;;;;;6235741;22;20202;31
2021/11/03 07:47:29;;;;;;;21.00;13.88;;;;;;;;;;6254536;22;20542;31
2021/11/03 08:06:25;;;;;;;24.25;14.50;;;;;;;;;;6292095;22;20563;31
2021/11/03 08:13:13;;;;;;;22.58;13.85;;;;;;;;;;6168565;22;20543;31
2021/11/03 08:22:06;;;;;;;20.08;13.40;;;;;;;;;;6288444;22;20197;31
2021/11/03 08:28:48;;;;;;;20.98;13.88;;;;;;;;;;6180129;22;20211;31
2021/11/03 08:33:16;;;;;;;20.10;14.38;;;;;;;;;;6205483;22;20519;-59
2021/11/03 08:39:56;;;;;;;21.38;14.02;;;;;;;;;;6292429;22;20558;31
2021/11/03 08:53:17;;;;;;;23.98;13.80;;;;;;;;;;6206994;22;22451;31
2021/11/03 09:14:38;;;;;;;21.20;14.35;;;;;;;;;;6199702;22;20537;-61
2021/11/03 09:17:03;;;;;;;21.75;14.02;;;;;;;;;;6173613;22;20192;31
2021/11/03 09:31:29;;;;;;;21.33;14.07;;;;;;;;;;6258265;22;20200;31
2021/11/03 09:38:46;;;;;;;20.90;14.77;;;;;;;;;;6258019;22;20206;31
2021/11/03 09:45:27;;;;;;;21.92;14.35;;;;;;;;;;6150950;23;20203;31
2021/11/03 09:58:46;;;;;;;20.50;13.70;;;;;;;;;;6295274;22;20204;31
2021/11/03 10:03:26;;;;;;;19.65;13.45;;;;;;;;;;6292229;22;20564;31
2021/11/03 10:09:58;;;;;;;18.92;12.80;;;;;;;;;;6207142;22;20512;-59
2021/11/03 10:12:25;;;;;;;19.77;14.00;;;;;;;;;;6180344;22;20188;31
2021/11/03 10:16:34;;;;;;;20.55;12.73;;;;;;;;;;6206884;22;20512;-59
2021/11/03 10:26:39;;;;;;;20.30;14.43;;;;;;;;;;6289134;22;21095;31
2021/11/03 10:44:50;;;;;;;22.67;14.50;;;;;;;;;;6260672;22;20519;31
2021/11/03 10:54:35;;;;;;;20.95;14.50;;;;;;;;;;6228074;22;20300;31
2021/11/03 11:11:46;;;;;;;18.02;13.25;;;;;;;;;;6324347;22;20677;31
2021/11/03 11:21:08;;;;;;;19.20;14.02;;;;;;;;;;6228087;22;20197;31
2021/11/03 11:35:12;;;;;;;20.55;14.85;;;;;;;;;;6227724;22;20194;31
2021/11/03 11:50:37;;;;;;;21.98;13.93;;;;;;;;;;6258790;22;20201;31
2021/11/03 12:05:02;;;;;;;20.27;13.98;;;;;;;;;;6347175;22;20199;31
2021/11/03 12:16:32;;;;;;;17.45;13.35;;;;;;;;;;6324540;22;20515;31
2021/11/03 12:30:20;;;;;;;16.73;10.93;;;;;;;;;;6260659;22;20522;-60
2021/11/03 12:37:08;;;;;;;12.18;10.32;;;;;;;;;;6291699;22;20552;-62
2021/11/03 12:53:27;;;;;;;11.48;8.48;;;;;;;;;;6320423;22;20188;31
2021/11/03 13:04:12;;;;;;;14.90;8.38;;;;;;;;;;6292025;22;20514;31
2021/11/03 13:24:31;;;;;;;11.15;8.25;;;;;;;;;;6228318;22;20528;31
2021/11/03 13:31:17;;;;;;;10.57;8.15;;;;;;;;;;6289525;22;20596;-58
2021/11/03 13:37:54;;;;;;;8.50;7.13;;;;;;;;;;6204180;22;20540;-62
2021/11/03 13:47:13;;;;;;;10.00;7.70;;;;;;;;;;6289140;22;20199;31
2021/11/03 13:53:51;;;;;;;10.05;7.65;;;;;;;;;;6137532;23;20200;31
2021/11/03 14:00:44;;;;;;;9.55;7.25;;;;;;;;;;6172865;23;20202;31
2021/11/03 14:07:22;;;;;;;10.27;6.97;;;;;;;;;;6206129;22;20275;31
2021/11/03 14:11:40;;;;;;;8.20;7.07;;;;;;;;;;6261995;22;21316;31
2021/11/03 14:19:07;;;;;;;;;;;;;;;;;;;;;
2021/11/03 14:41:58;;;;;;;10.48;7.60;;;;;;;;;;5821915;22;21055;31
2021/11/03 14:49:07;;;;;;;9.45;7.20;;;;;;;;;;6344447;22;20190;-58
2021/11/03 14:59:49;;;;;;;11.05;7.53;;;;;;;;;;6168444;22;20523;31
2021/11/03 15:06:27;;;;;;;10.75;7.65;;;;;;;;;;6169260;22;23458;31
2021/11/03 15:31:43;;;;;;;9.80;7.45;;;;;;;;;;6286434;22;38903;31
2021/11/03 15:36:37;;;;;;;11.95;8.35;;;;;;;;;;6289280;22;20189;31
2021/11/03 15:47:15;;;;;;;12.13;8.07;;;;;;;;;;6205626;22;20575;31
2021/11/03 15:56:31;;;;;;;12.68;8.32;;;;;;;;;;6226293;22;20189;31
2021/11/03 16:07:59;;;;;;;11.65;7.68;;;;;;;;;;6259762;22;20551;31
2021/11/03 16:17:26;;;;;;;14.55;8.20;;;;;;;;;;6318993;22;20203;31
2021/11/03 16:21:32;;;;;;;13.13;8.48;;;;;;;;;;6167566;22;20522;31
2021/11/03 16:31:16;;;;;;;10.90;8.32;;;;;;;;;;6225625;22;20200;31
2021/11/03 16:38:30;;;;;;;11.68;8.10;;;;;;;;;;6318202;22;20200;31
2021/11/03 16:45:08;;;;;;;10.10;8.10;;;;;;;;;;6318980;22;20208;31
2021/11/03 16:52:13;;;;;;;12.65;8.02;;;;;;;;;;6257819;22;20205;31
2021/11/03 17:25:36;;;;;;;9.93;7.47;;;;;;;;;;6207000;22;20560;31
2021/11/03 17:32:06;;;;;;;11.10;8.07;;;;;;;;;;6291814;22;20531;31
2021/11/03 17:39:21;;;;;;;15.35;10.70;;;;;;;;;;6348645;22;20964;-61
2021/11/03 17:48:55;;;;;;;16.40;9.82;;;;;;;;;;6319802;22;20202;31
2021/11/03 17:56:06;;;;;;;14.52;10.45;;;;;;;;;;6320259;22;20199;31
2021/11/03 18:00:23;;;;;;;16.10;10.93;;;;;;;;;;6260835;22;20543;31
2021/11/03 18:02:49;;;;;;;15.52;11.10;;;;;;;;;;6227757;22;20186;31
2021/11/03 18:24:10;;;;;;;17.13;11.82;;;;;;;;;;6259384;22;20204;31
2021/11/03 18:35:31;;;;;;;17.35;11.95;;;;;;;;;;6290950;22;20527;31
2021/11/03 18:45:11;;;;;;;19.27;12.07;;;;;;;;;;6149940;23;20211;-60
2021/11/03 18:52:38;;;;;;;18.52;13.05;;;;;;;;;;6153642;23;20202;31
2021/11/03 19:04:40;;;;;;;20.90;13.90;;;;;;;;;;6349060;22;20547;31
2021/11/03 19:12:04;;;;;;;21.55;14.32;;;;;;;;;;6263091;22;20652;31
2021/11/03 19:21:24;;;;;;;23.83;14.77;;;;;;;;;;6143667;22;20219;31
2021/11/03 19:25:51;;;;;;;20.15;13.77;;;;;;;;;;6169644;22;20531;31
2021/11/03 19:32:47;;;;;;;20.58;13.45;;;;;;;;;;6262170;22;20573;31
2021/11/03 19:39:50;;;;;;;19.67;13.27;;;;;;;;;;6292859;22;20557;31
2021/11/03 19:47:00;;;;;;;20.60;13.65;;;;;;;;;;6291871;22;22495;31
2021/11/03 20:01:42;;;;;;;22.23;13.95;;;;;;;;;;5968219;22;20513;31
2021/11/03 20:09:16;;;;;;;20.65;13.60;;;;;;;;;;6323196;22;20525;31
2021/11/03 20:19:11;;;;;;;19.15;12.90;;;;;;;;;;6260236;22;20212;31
2021/11/03 20:25:46;;;;;;;22.40;14.35;;;;;;;;;;6175702;22;20214;31
2021/11/03 20:32:39;;;;;;;23.08;13.13;;;;;;;;;;6199088;22;20202;31
2021/11/03 20:37:09;;;;;;;22.60;13.73;;;;;;;;;;6262607;22;20617;31
2021/11/03 20:46:31;;;;;;;22.15;13.82;;;;;;;;;;6168689;22;20210;-61
2021/11/03 20:58:40;;;;;;;22.05;13.65;;;;;;;;;;6171140;22;20508;31
2021/11/03 21:07:51;;;;;;;19.95;14.30;;;;;;;;;;6208596;22;20536;31
2021/11/03 21:25:33;;;;;;;22.67;15.77;;;;;;;;;;6297747;22;20204;31
2021/11/03 21:29:44;;;;;;;24.33;14.35;;;;;;;;;;5893463;22;20560;-59
2021/11/03 21:37:08;;;;;;;24.35;15.68;;;;;;;;;;6351797;22;20540;31
2021/11/03 21:44:20;;;;;;;24.55;15.70;;;;;;;;;;6177186;22;20573;-61
2021/11/03 21:58:35;;;;;;;27.67;16.88;;;;;;;;;;6291401;22;20557;31
2021/11/03 22:08:02;;;;;;;29.48;18.05;;;;;;;;;;6181315;22;20572;31
2021/11/03 22:20:29;;;;;;;32.13;18.67;;;;;;;;;;6228793;22;20524;31
2021/11/03 22:30:15;;;;;;;33.83;18.80;;;;;;;;;;6256966;22;20196;-62
2021/11/03 22:34:53;;;;;;;33.25;18.65;;;;;;;;;;6290843;22;21711;31
2021/11/03 22:43:56;;;;;;;37.10;19.58;;;;;;;;;;6205022;22;20205;31
2021/11/03 22:51:04;;;;;;;34.35;19.40;;;;;;;;;;6320545;22;20198;31
2021/11/03 22:57:42;;;;;;;35.03;20.00;;;;;;;;;;6137692;23;20204;31
2021/11/03 23:04:21;;;;;;;32.25;18.63;;;;;;;;;;6257996;22;20218;31
2021/11/03 23:17:57;;;;;;;34.92;18.02;;;;;;;;;;6346189;22;20202;31
2021/11/03 23:22:12;;;;;;;35.03;18.02;;;;;;;;;;6293015;22;20515;31
2021/11/03 23:31:19;;;;;;;34.63;18.88;;;;;;;;;;6347062;22;20200;31
2021/11/03 23:35:27;;;;;;;32.92;18.00;;;;;;;;;;6293041;22;20507;-61
2021/11/03 23:42:38;;;;;;;33.95;19.33;;;;;;;;;;6349334;22;20556;31
2021/11/03 23:51:53;;;;;;;36.90;19.10;;;;;;;;;;5812574;23;20220;31
2021/11/03 23:59:05;;;;;;;33.80;18.75;;;;;;;;;;6322469;22;20207;31
